createdAt,value
2019-05-14T00:00:53.237Z,101177.20
2019-05-14T00:03:23.198Z,101171.36
2019-05-14T00:05:53.066Z,101167.44
2019-05-14T00:08:23.140Z,101177.95
2019-05-14T00:10:53.121Z,101187.30
2019-05-14T00:13:23.032Z,101192.86
2019-05-14T00:15:52.901Z,101197.61
2019-05-14T00:18:22.817Z,101208.41
2019-05-14T00:20:52.744Z,101234.48
2019-05-14T00:23:22.684Z,101256.61
2019-05-14T00:25:52.571Z,101278.64
2019-05-14T00:28:22.477Z,101291.27
2019-05-14T00:30:52.671Z,101287.57
2019-05-14T00:33:22.744Z,101290.83
2019-05-14T00:35:52.745Z,101283.21
2019-05-14T00:38:22.650Z,101286.61
2019-05-14T00:40:52.458Z,101279.17
2019-05-14T00:43:22.436Z,101269.62
2019-05-14T00:45:52.315Z,101263.09
2019-05-14T00:48:22.288Z,101255.83
2019-05-14T00:50:52.239Z,101253.87
2019-05-14T00:53:22.073Z,101251.91
2019-05-14T00:55:52.921Z,101254.67
2019-05-14T00:58:22.719Z,101242.45
2019-05-14T01:00:52.778Z,101237.61
2019-05-14T01:03:22.451Z,101235.22
2019-05-14T01:05:52.524Z,101241.16
2019-05-14T01:08:22.275Z,101234.61
2019-05-14T01:10:52.254Z,101212.80
2019-05-14T01:13:22.104Z,101200.28
2019-05-14T01:15:52.353Z,101191.41
2019-05-14T01:18:22.175Z,101193.11
2019-05-14T01:20:52.182Z,101198.55
2019-05-14T01:23:22.103Z,101187.27
2019-05-14T01:25:51.927Z,101186.15
2019-05-14T01:28:21.821Z,101191.34
2019-05-14T01:30:52.033Z,101204.09
2019-05-14T01:33:21.817Z,101200.34
2019-05-14T01:35:51.678Z,101185.19
2019-05-14T01:38:22.167Z,101188.73
2019-05-14T01:40:52.624Z,101191.72
2019-05-14T01:43:22.350Z,101188.95
2019-05-14T01:45:52.597Z,101195.48
2019-05-14T01:48:22.384Z,101190.41
2019-05-14T01:50:52.327Z,101209.32
2019-05-14T01:53:22.201Z,101223.78
2019-05-14T01:55:52.260Z,101220.46
2019-05-14T01:58:22.296Z,101211.78
2019-05-14T02:00:52.482Z,101204.63
2019-05-14T02:03:22.380Z,101203.11
2019-05-14T02:05:52.319Z,101205.84
2019-05-14T02:08:22.187Z,101209.08
2019-05-14T02:10:52.633Z,101215.48
2019-05-14T02:13:22.720Z,101218.56
2019-05-14T02:15:52.637Z,101216.94
2019-05-14T02:18:22.515Z,101209.64
2019-05-14T02:20:52.440Z,101209.55
2019-05-14T02:23:23.615Z,101209.08
2019-05-14T02:25:53.397Z,101189.48
2019-05-14T02:28:23.329Z,101193.40
2019-05-14T02:30:58.073Z,101198.50
2019-05-14T02:33:24.796Z,101207.64
2019-05-14T02:35:54.533Z,101198.08
2019-05-14T02:38:24.538Z,101180.62
2019-05-14T02:40:54.549Z,101182.35
2019-05-14T02:43:24.366Z,101208.63
2019-05-14T02:46:09.054Z,101228.84
2019-05-14T02:48:28.979Z,101228.62
2019-05-14T02:50:59.821Z,101241.97
2019-05-14T02:53:29.892Z,101247.13
2019-05-14T02:56:00.125Z,101251.88
2019-05-14T02:58:30.290Z,101248.57
2019-05-14T03:01:00.811Z,101258.09
2019-05-14T03:03:30.844Z,101259.02
2019-05-14T03:06:01.051Z,101251.13
2019-05-14T03:08:31.190Z,101247.55
2019-05-14T03:11:01.373Z,101264.30
2019-05-14T03:13:31.308Z,101256.74
2019-05-14T03:16:19.026Z,101280.48
2019-05-14T03:18:32.933Z,101312.09
2019-05-14T03:21:02.864Z,101340.30
2019-05-14T03:23:32.717Z,101331.86
2019-05-14T03:26:02.469Z,101317.16
2019-05-14T03:28:32.421Z,101292.77
2019-05-14T03:31:03.734Z,101286.42
2019-05-14T03:33:34.581Z,101284.91
2019-05-14T03:36:08.899Z,101268.73
2019-05-14T03:38:39.458Z,101238.25
2019-05-14T03:41:09.348Z,101213.75
2019-05-14T03:43:39.635Z,101225.86
2019-05-14T03:46:09.859Z,101243.19
2019-05-14T03:48:40.225Z,101228.98
2019-05-14T03:51:11.394Z,101218.92
2019-05-14T03:53:55.030Z,101206.23
2019-05-14T03:56:12.736Z,101227.94
2019-05-14T03:58:42.604Z,101231.23
2019-05-14T04:01:13.547Z,101201.72
2019-05-14T04:03:43.820Z,101190.17
2019-05-14T04:06:15.385Z,101197.78
2019-05-14T04:08:45.835Z,101216.91
2019-05-14T04:11:20.209Z,101218.56
2019-05-14T04:13:52.423Z,101216.09
2019-05-14T04:16:24.082Z,101214.47
2019-05-14T04:18:54.992Z,101209.08
2019-05-14T04:21:29.798Z,101189.08
2019-05-14T04:24:00.914Z,101184.70
2019-05-14T04:26:50.875Z,101167.48
2019-05-14T04:29:05.721Z,101162.48
2019-05-14T04:31:39.078Z,101161.89
2019-05-14T04:34:10.747Z,101166.94
2019-05-14T04:36:40.122Z,101166.61
2019-05-14T04:39:09.852Z,101163.71
2019-05-14T04:41:39.726Z,101176.94
2019-05-14T04:44:10.065Z,101185.25
2019-05-14T04:46:42.223Z,101172.97
2019-05-14T04:49:12.136Z,101172.92
2019-05-14T04:51:42.222Z,101177.36
2019-05-14T04:54:12.181Z,101175.89
2019-05-14T04:56:41.875Z,101170.33
2019-05-14T04:59:11.900Z,101177.20
2019-05-14T05:01:41.951Z,101162.71
2019-05-14T05:04:11.747Z,101153.35
2019-05-14T05:06:41.494Z,101156.00
2019-05-14T05:09:11.340Z,101159.22
2019-05-14T05:11:41.195Z,101161.99
2019-05-14T05:14:12.340Z,101171.64
2019-05-14T05:16:42.139Z,101176.42
2019-05-14T05:19:12.029Z,101177.48
2019-05-14T05:21:42.140Z,101189.77
2019-05-14T05:24:12.219Z,101187.91
2019-05-14T05:26:41.913Z,101195.65
2019-05-14T05:29:11.777Z,101186.72
2019-05-14T05:31:41.430Z,101183.89
2019-05-14T05:34:11.338Z,101189.59
2019-05-14T05:36:41.322Z,101204.48
2019-05-14T05:39:11.181Z,101209.39
2019-05-14T05:41:41.149Z,101214.14
2019-05-14T05:44:11.007Z,101216.17
2019-05-14T05:46:43.214Z,101220.67
2019-05-14T05:49:12.323Z,101231.78
2019-05-14T05:51:42.210Z,101239.64
2019-05-14T05:54:12.237Z,101257.52
2019-05-14T05:56:42.168Z,101269.06
2019-05-14T05:59:11.962Z,101276.55
2019-05-14T06:01:46.333Z,101285.50
2019-05-14T06:04:13.780Z,101284.89
2019-05-14T06:06:43.549Z,101275.97
2019-05-14T06:09:13.563Z,101243.80
2019-05-14T06:11:43.455Z,101227.94
2019-05-14T06:14:13.288Z,101225.27
2019-05-14T06:16:43.095Z,101252.42
2019-05-14T06:19:12.976Z,101254.38
2019-05-14T06:21:42.856Z,101250.94
2019-05-14T06:24:12.773Z,101241.19
2019-05-14T06:26:42.723Z,101238.69
2019-05-14T06:29:12.579Z,101234.86
2019-05-14T06:31:42.528Z,101223.64
2019-05-14T06:34:12.483Z,101228.31
2019-05-14T06:36:42.324Z,101235.47
2019-05-14T06:39:12.249Z,101227.02
2019-05-14T06:41:43.096Z,101259.52
2019-05-14T06:44:13.082Z,101284.29
2019-05-14T06:46:42.813Z,101287.02
2019-05-14T06:49:12.669Z,101278.69
2019-05-14T06:51:43.586Z,101242.34
2019-05-14T06:54:13.384Z,101213.86
2019-05-14T06:56:43.152Z,101202.72
2019-05-14T06:59:12.917Z,101186.86
2019-05-14T07:01:42.724Z,101180.43
2019-05-14T07:04:12.756Z,101170.67
2019-05-14T07:06:42.547Z,101180.28
2019-05-14T07:09:12.476Z,101189.66
2019-05-14T07:11:42.416Z,101197.46
2019-05-14T07:14:12.310Z,101192.80
2019-05-14T07:16:42.162Z,101194.10
2019-05-14T07:19:12.062Z,101185.03
2019-05-14T07:21:41.874Z,101163.69
2019-05-14T07:24:11.834Z,101163.96
2019-05-14T07:26:41.706Z,101157.40
2019-05-14T07:29:11.785Z,101147.58
2019-05-14T07:31:41.849Z,101151.53
2019-05-14T07:34:11.659Z,101163.69
2019-05-14T07:36:41.647Z,101154.97
2019-05-14T07:39:11.488Z,101149.01
2019-05-14T07:41:41.457Z,101146.05
2019-05-14T07:44:11.323Z,101165.81
2019-05-14T07:46:41.245Z,101170.41
2019-05-14T07:49:11.924Z,101174.34
2019-05-14T07:51:41.875Z,101173.76
2019-05-14T07:54:11.852Z,101165.97
2019-05-14T07:56:41.614Z,101158.11
2019-05-14T07:59:11.480Z,101144.12
2019-05-14T08:01:41.360Z,101139.13
2019-05-14T08:04:11.790Z,101121.77
2019-05-14T08:06:41.844Z,101105.49
2019-05-14T08:09:11.617Z,101116.69
2019-05-14T08:11:42.689Z,101121.24
2019-05-14T08:14:12.556Z,101117.31
2019-05-14T08:16:42.470Z,101118.89
2019-05-14T08:19:24.447Z,101122.23
2019-05-14T08:21:43.808Z,101122.23
2019-05-14T08:24:15.376Z,101121.96
2019-05-14T08:26:45.348Z,101129.31
2019-05-14T08:29:15.094Z,101146.73
2019-05-14T08:31:44.867Z,101155.05
2019-05-14T08:34:14.900Z,101159.91
2019-05-14T08:36:44.762Z,101169.91
2019-05-14T08:39:14.596Z,101196.37
2019-05-14T08:41:44.430Z,101229.75
2019-05-14T08:44:14.174Z,101284.77
2019-05-14T08:46:45.229Z,101318.84
2019-05-14T08:49:15.206Z,101329.93
2019-05-14T08:51:44.965Z,101321.13
2019-05-14T08:54:14.724Z,101312.77
2019-05-14T08:56:44.722Z,101278.59
2019-05-14T08:59:14.557Z,101246.97
2019-05-14T09:02:00.910Z,101250.10
2019-05-14T09:04:16.278Z,101248.80
2019-05-14T09:06:45.968Z,101229.02
2019-05-14T09:09:18.127Z,101209.11
2019-05-14T09:11:50.367Z,101187.69
2019-05-14T09:14:18.974Z,101194.11
2019-05-14T09:16:51.049Z,101224.27
2019-05-14T09:19:20.680Z,101237.13
2019-05-14T09:21:50.592Z,101214.68
2019-05-14T09:24:20.639Z,101173.22
2019-05-14T09:26:50.436Z,101165.61
2019-05-14T09:29:25.789Z,101175.53
2019-05-14T09:31:51.935Z,101217.71
2019-05-14T09:34:21.902Z,101242.48
2019-05-14T09:36:51.703Z,101234.16
2019-05-14T09:39:21.676Z,101206.14
2019-05-14T09:41:51.531Z,101217.31
2019-05-14T09:44:21.603Z,101231.71
2019-05-14T09:46:51.385Z,101222.91
2019-05-14T09:49:21.191Z,101159.17
2019-05-14T09:51:51.050Z,101199.77
2019-05-14T09:54:20.839Z,101195.87
2019-05-14T09:56:50.650Z,101195.92
2019-05-14T09:59:21.785Z,101213.55
2019-05-14T10:01:51.512Z,101183.09
2019-05-14T10:04:21.538Z,101157.88
2019-05-14T10:06:51.411Z,101147.28
2019-05-14T10:09:21.256Z,101150.02
2019-05-14T10:11:51.157Z,101155.27
2019-05-14T10:14:21.130Z,101123.49
2019-05-14T10:16:50.893Z,101114.45
2019-05-14T10:19:20.723Z,101106.34
2019-05-14T10:21:50.803Z,101106.22
2019-05-14T10:24:20.562Z,101108.12
2019-05-14T10:26:50.488Z,101115.37
2019-05-14T10:29:20.562Z,101109.58
2019-05-14T10:31:50.441Z,101117.33
2019-05-14T10:34:20.235Z,101103.23
2019-05-14T10:36:50.146Z,101075.05
2019-05-14T10:39:20.214Z,101068.96
2019-05-14T10:41:50.805Z,101065.18
2019-05-14T10:44:20.618Z,101071.10
2019-05-14T10:46:50.521Z,101091.84
2019-05-14T10:49:23.629Z,101096.45
2019-05-14T10:51:51.780Z,101101.23
2019-05-14T10:54:25.698Z,101085.97
2019-05-14T10:56:54.539Z,101074.57
2019-05-14T10:59:24.419Z,101083.23
2019-05-14T11:01:54.198Z,101081.34
2019-05-14T11:04:25.199Z,101077.64
2019-05-14T11:06:55.077Z,101075.16
2019-05-14T11:09:25.112Z,101067.91
2019-05-14T11:11:54.895Z,101066.43
2019-05-14T11:14:24.649Z,101062.42
2019-05-14T11:16:54.545Z,101038.72
2019-05-14T11:19:24.763Z,101078.61
2019-05-14T11:21:54.533Z,101071.48
2019-05-14T11:24:24.443Z,101051.10
2019-05-14T11:26:54.225Z,101063.00
2019-05-14T11:29:24.130Z,101063.95
2019-05-14T11:31:56.838Z,101071.27
2019-05-14T11:34:28.748Z,101047.52
2019-05-14T11:36:59.026Z,101055.98
2019-05-14T11:39:30.268Z,101048.81
2019-05-14T11:42:00.049Z,101036.47
2019-05-14T11:44:29.968Z,101037.89
2019-05-14T11:47:02.662Z,101041.89
2019-05-14T11:49:31.450Z,101056.23
2019-05-14T11:52:07.696Z,101073.37
2019-05-14T11:54:33.941Z,101042.98
2019-05-14T11:57:03.856Z,101067.16
2019-05-14T11:59:33.811Z,101062.30
2019-05-14T12:02:03.758Z,101045.16
2019-05-14T12:04:34.740Z,101014.06
2019-05-14T12:07:04.561Z,101025.62
2019-05-14T12:09:34.482Z,101033.89
2019-05-14T12:12:05.881Z,101028.95
2019-05-14T12:14:37.913Z,101023.90
2019-05-14T12:17:09.497Z,101031.65
2019-05-14T12:19:43.371Z,101035.99
2019-05-14T12:22:12.434Z,101033.04
2019-05-14T12:24:42.347Z,101028.78
2019-05-14T12:27:12.397Z,100996.19
2019-05-14T12:29:42.096Z,100988.34
2019-05-14T12:32:13.288Z,100994.16
2019-05-14T12:34:43.048Z,101002.05
2019-05-14T12:37:12.870Z,100995.39
2019-05-14T12:39:42.711Z,100987.02
2019-05-14T12:42:12.823Z,100984.55
2019-05-14T12:44:42.889Z,100983.58
2019-05-14T12:47:12.676Z,100990.41
2019-05-14T12:49:43.922Z,101012.55
2019-05-14T12:52:24.573Z,101015.06
2019-05-14T12:54:45.580Z,101000.16
2019-05-14T12:57:15.437Z,100993.58
2019-05-14T12:59:45.302Z,101001.22
2019-05-14T13:02:15.212Z,100998.08
2019-05-14T13:04:45.082Z,101006.95
2019-05-14T13:07:14.938Z,101017.58
2019-05-14T13:09:46.006Z,101029.41
2019-05-14T13:12:15.896Z,101028.17
2019-05-14T13:14:45.714Z,101023.64
2019-05-14T13:17:15.546Z,101018.39
2019-05-14T13:19:45.614Z,101017.77
2019-05-14T13:22:19.008Z,101024.45
2019-05-14T13:24:49.173Z,101019.03
2019-05-14T13:27:19.069Z,101022.48
2019-05-14T13:29:49.073Z,101033.48
2019-05-14T13:32:22.466Z,101025.53
2019-05-14T13:34:52.320Z,101014.91
2019-05-14T13:37:22.189Z,101008.88
2019-05-14T13:39:53.158Z,101023.76
2019-05-14T13:42:23.115Z,101028.12
2019-05-14T13:44:53.059Z,101029.61
2019-05-14T13:47:22.919Z,101028.48
2019-05-14T13:49:52.835Z,101016.77
2019-05-14T13:52:22.703Z,101029.34
2019-05-14T13:54:52.377Z,101032.77
2019-05-14T13:57:22.243Z,101029.20
2019-05-14T13:59:52.097Z,101027.31
2019-05-14T14:02:22.050Z,101026.22
2019-05-14T14:04:52.094Z,100997.08
2019-05-14T14:07:21.852Z,101006.14
2019-05-14T14:09:53.023Z,101006.77
2019-05-14T14:12:25.186Z,100998.39
2019-05-14T14:14:54.331Z,100982.52
2019-05-14T14:17:24.103Z,100972.76
2019-05-14T14:19:53.820Z,100975.49
2019-05-14T14:22:23.776Z,100961.77
2019-05-14T14:24:53.428Z,100963.22
2019-05-14T14:27:24.614Z,100969.56
2019-05-14T14:29:54.359Z,100963.55
2019-05-14T14:32:24.138Z,100968.80
2019-05-14T14:34:55.149Z,100977.64
2019-05-14T14:37:28.490Z,100976.23
2019-05-14T14:39:59.301Z,100974.08
2019-05-14T14:42:30.407Z,100978.88
2019-05-14T14:45:01.726Z,100981.21
2019-05-14T14:47:32.517Z,100985.39
2019-05-14T14:50:02.337Z,100992.30
2019-05-14T14:52:33.398Z,101015.28
2019-05-14T14:55:03.204Z,101025.75
2019-05-14T14:57:33.024Z,101045.98
2019-05-14T15:00:02.911Z,101052.40
2019-05-14T15:02:32.654Z,101077.77
2019-05-14T15:05:02.545Z,101053.75
2019-05-14T15:07:32.534Z,101016.60
2019-05-14T15:10:02.178Z,100948.55
2019-05-14T15:12:35.659Z,100953.78
2019-05-14T15:15:03.709Z,100975.80
2019-05-14T15:17:33.465Z,100998.16
2019-05-14T15:20:03.434Z,100992.34
2019-05-14T15:22:34.542Z,101004.48
2019-05-14T15:25:04.541Z,101015.91
2019-05-14T15:27:34.374Z,101014.70
2019-05-14T15:30:05.024Z,101016.37
2019-05-14T15:32:34.923Z,101005.45
2019-05-14T15:35:05.095Z,101041.36
2019-05-14T15:37:34.921Z,101023.28
2019-05-14T15:40:04.988Z,101012.67
2019-05-14T15:42:34.822Z,100996.75
2019-05-14T15:45:04.592Z,100997.22
2019-05-14T15:47:34.511Z,100988.55
2019-05-14T15:50:05.901Z,100973.55
2019-05-14T15:52:35.600Z,100955.83
2019-05-14T15:55:05.711Z,100934.79
2019-05-14T15:57:39.588Z,100946.78
2019-05-14T16:00:09.320Z,100944.91
2019-05-14T16:02:39.982Z,100949.05
2019-05-14T16:05:11.308Z,100962.73
2019-05-14T16:07:41.262Z,100968.67
2019-05-14T16:10:11.354Z,100979.16
2019-05-14T16:12:41.165Z,100982.23
2019-05-14T16:15:12.249Z,100965.70
2019-05-14T16:17:50.599Z,100942.73
2019-05-14T16:20:14.231Z,100940.86
2019-05-14T16:22:43.921Z,100918.03
2019-05-14T16:25:15.377Z,100917.41
2019-05-14T16:27:45.388Z,100896.37
2019-05-14T16:30:19.171Z,100903.39
2019-05-14T16:32:48.671Z,100877.12
2019-05-14T16:35:21.218Z,100870.92
2019-05-14T16:37:50.209Z,100871.64
2019-05-14T16:40:20.121Z,100848.32
2019-05-14T16:42:49.873Z,100876.63
2019-05-14T16:45:19.725Z,100867.13
2019-05-14T16:47:49.570Z,100845.36
2019-05-14T16:50:19.772Z,100849.04
2019-05-14T16:52:49.618Z,100839.19
2019-05-14T16:55:26.429Z,100830.15
2019-05-14T16:57:51.332Z,100832.77
2019-05-14T17:00:21.574Z,100850.94
2019-05-14T17:02:51.431Z,100834.68
2019-05-14T17:05:21.139Z,100830.86
2019-05-14T17:07:51.024Z,100826.13
2019-05-14T17:10:20.857Z,100832.17
2019-05-14T17:12:56.895Z,100861.64
2019-05-14T17:15:22.242Z,100878.97
2019-05-14T17:17:52.096Z,100873.28
2019-05-14T17:20:24.425Z,100902.16
2019-05-14T17:22:53.811Z,100909.30
2019-05-14T17:25:26.986Z,100898.02
2019-05-14T17:27:54.959Z,100853.56
2019-05-14T17:30:24.830Z,100850.60
2019-05-14T17:32:54.552Z,100875.66
2019-05-14T17:35:24.434Z,100871.27
2019-05-14T17:37:54.260Z,100897.65
2019-05-14T17:40:24.178Z,100857.37
2019-05-14T17:42:54.159Z,100889.02
2019-05-14T17:45:24.059Z,100903.98
2019-05-14T17:47:54.036Z,100916.72
2019-05-14T17:50:23.744Z,100877.25
2019-05-14T17:52:56.308Z,100887.66
2019-05-14T17:55:25.338Z,100896.98
2019-05-14T17:57:58.575Z,100903.72
2019-05-14T18:00:28.766Z,100890.39
2019-05-14T18:02:59.144Z,100890.22
2019-05-14T18:05:29.235Z,100887.13
2019-05-14T18:07:59.580Z,100881.17
2019-05-14T18:10:29.641Z,100899.11
2019-05-14T18:12:59.988Z,100900.67
2019-05-14T18:15:29.777Z,100881.28
2019-05-14T18:17:59.597Z,100880.45
2019-05-14T18:20:29.622Z,100887.70
2019-05-14T18:22:59.423Z,100900.66
2019-05-14T18:25:29.284Z,100901.02
2019-05-14T18:27:59.102Z,100893.66
2019-05-14T18:30:29.159Z,100889.74
2019-05-14T18:32:58.901Z,100891.05
2019-05-14T18:35:29.634Z,100904.45
2019-05-14T18:37:59.492Z,100903.97
2019-05-14T18:40:30.532Z,100907.21
2019-05-14T18:43:01.571Z,100883.53
2019-05-14T18:45:31.381Z,100897.59
2019-05-14T18:48:01.199Z,100921.47
2019-05-14T18:50:32.290Z,100948.92
2019-05-14T18:53:02.152Z,100925.16
2019-05-14T18:55:31.885Z,100965.81
2019-05-14T18:58:01.732Z,100953.34
2019-05-14T19:00:31.922Z,100916.10
2019-05-14T19:03:02.377Z,100925.63
2019-05-14T19:05:32.301Z,100912.18
2019-05-14T19:08:02.063Z,100905.06
2019-05-14T19:10:31.768Z,100870.33
2019-05-14T19:13:04.056Z,100847.16
2019-05-14T19:15:33.967Z,100868.44
2019-05-14T19:18:04.005Z,100875.69
2019-05-14T19:20:35.155Z,100866.08
2019-05-14T19:23:05.040Z,100855.25
2019-05-14T19:25:34.877Z,100854.19
2019-05-14T19:28:04.846Z,100833.00
2019-05-14T19:30:38.068Z,100865.48
2019-05-14T19:33:08.527Z,100842.73
2019-05-14T19:35:39.676Z,100858.09
2019-05-14T19:38:09.423Z,100862.61
2019-05-14T19:40:39.404Z,100855.81
2019-05-14T19:43:09.509Z,100865.09
2019-05-14T19:45:39.628Z,100856.19
2019-05-14T19:48:09.509Z,100845.72
2019-05-14T19:50:39.152Z,100847.61
2019-05-14T19:53:09.158Z,100853.92
2019-05-14T19:55:39.342Z,100856.19
2019-05-14T19:58:09.332Z,100858.43
2019-05-14T20:00:39.217Z,100859.84
2019-05-14T20:03:10.391Z,100823.25
2019-05-14T20:05:40.183Z,100830.97
2019-05-14T20:08:10.020Z,100822.43
2019-05-14T20:10:39.985Z,100817.67
2019-05-14T20:13:09.845Z,100815.06
2019-05-14T20:15:39.879Z,100812.55
2019-05-14T20:18:11.215Z,100813.64
2019-05-14T20:20:40.835Z,100814.95
2019-05-14T20:23:10.738Z,100808.89
2019-05-14T20:25:40.719Z,100813.73
2019-05-14T20:28:10.477Z,100815.63
2019-05-14T20:30:40.307Z,100821.13
2019-05-14T20:33:10.244Z,100811.03
2019-05-14T20:35:39.954Z,100810.30
2019-05-14T20:38:10.964Z,100778.47
2019-05-14T20:40:40.909Z,100784.05
2019-05-14T20:43:10.616Z,100779.99
2019-05-14T20:45:40.511Z,100770.60
2019-05-14T20:48:10.477Z,100771.09
2019-05-14T20:50:40.263Z,100761.00
2019-05-14T20:53:10.177Z,100781.06
2019-05-14T20:55:40.055Z,100772.63
2019-05-14T20:58:10.058Z,100772.52
2019-05-14T21:00:41.401Z,100774.77
2019-05-14T21:03:12.767Z,100771.08
2019-05-14T21:05:42.667Z,100763.01
2019-05-14T21:08:13.490Z,100753.38
2019-05-14T21:10:43.547Z,100736.50
2019-05-14T21:13:13.411Z,100719.51
2019-05-14T21:15:43.327Z,100735.20
2019-05-14T21:18:13.222Z,100728.66
2019-05-14T21:20:43.065Z,100732.11
2019-05-14T21:23:13.004Z,100729.16
2019-05-14T21:25:42.892Z,100727.02
2019-05-14T21:28:12.830Z,100728.44
2019-05-14T21:30:43.971Z,100728.91
2019-05-14T21:33:16.052Z,100727.94
2019-05-14T21:35:45.845Z,100731.39
2019-05-14T21:38:15.845Z,100745.77
2019-05-14T21:40:47.005Z,100739.70
2019-05-14T21:43:18.563Z,100754.45
2019-05-14T21:45:48.960Z,100756.84
2019-05-14T21:48:19.885Z,100755.39
2019-05-14T21:50:50.040Z,100771.55
2019-05-14T21:53:19.944Z,100768.47
2019-05-14T21:55:49.916Z,100746.59
2019-05-14T21:58:19.940Z,100768.94
2019-05-14T22:00:53.947Z,100787.25
2019-05-14T22:03:24.195Z,100752.63
2019-05-14T22:05:54.341Z,100720.08
2019-05-14T22:08:24.177Z,100690.63
2019-05-14T22:10:54.083Z,100702.12
2019-05-14T22:13:23.933Z,100682.39
2019-05-14T22:15:53.732Z,100682.66
2019-05-14T22:18:23.668Z,100692.53
2019-05-14T22:20:53.541Z,100681.48
2019-05-14T22:23:23.454Z,100685.05
2019-05-14T22:25:53.430Z,100676.84
2019-05-14T22:28:23.226Z,100690.75
2019-05-14T22:30:53.259Z,100705.49
2019-05-14T22:33:23.154Z,100699.64
2019-05-14T22:35:53.022Z,100711.27
2019-05-14T22:38:22.946Z,100706.33
2019-05-14T22:40:55.301Z,100723.43
2019-05-14T22:43:25.398Z,100745.55
2019-05-14T22:45:55.216Z,100751.36
2019-05-14T22:48:26.326Z,100756.55
2019-05-14T22:50:56.200Z,100756.55
2019-05-14T22:53:27.869Z,100731.86
2019-05-14T22:55:58.647Z,100740.67
2019-05-14T22:58:28.963Z,100759.42
2019-05-14T23:01:13.258Z,100736.36
2019-05-14T23:03:30.688Z,100730.44
2019-05-14T23:06:00.489Z,100715.59
2019-05-14T23:08:30.245Z,100735.67
2019-05-14T23:11:00.125Z,100705.02
2019-05-14T23:13:29.973Z,100700.16
2019-05-14T23:16:01.129Z,100689.22
2019-05-14T23:18:30.992Z,100684.50
2019-05-14T23:21:00.911Z,100680.72
2019-05-14T23:23:30.861Z,100685.36
2019-05-14T23:26:00.772Z,100666.84
2019-05-14T23:28:41.768Z,100672.17
2019-05-14T23:31:02.503Z,100689.77
2019-05-14T23:33:32.776Z,100684.98
2019-05-14T23:36:02.786Z,100678.58
2019-05-14T23:38:32.621Z,100683.34
2019-05-14T23:41:02.525Z,100685.95
2019-05-14T23:43:33.042Z,100674.42
2019-05-14T23:46:02.857Z,100675.26
2019-05-14T23:48:32.775Z,100665.42
2019-05-14T23:51:03.930Z,100671.81
2019-05-14T23:53:33.748Z,100675.05
2019-05-14T23:56:03.813Z,100687.83
2019-05-14T23:58:33.927Z,100661.70
